Aviation Digital Data Service (ADDS)

Output produced by METARs form (1110 UTC 24 April 2017)
found at http://www.aviationweather.gov/adds/metars/
 
VYMD 241030Z 19010G25KT 7000 SCT020 FEW025CB 33/21 Q1003
TAF VYMD 240500Z 2406/2506 17010G25KT 7000 BKN020 FEW025CB 
     TEMPO 2406/2412 16015G30KT 4000 -TSRA BKN015 FEW018CB OVC080
       
VYYY 241100Z 27003KT 7000 SCT015 FEW020TCU SCT100 33/21 Q1007
TAF VYYY 240500Z 2406/2506 22006KT 8000 SCT020 SCT110 
     TEMPO 2406/2412 25008G18KT 9000 BKN015 FEW018CB 
     BECMG 2500/2502 6000 HZ